Time;durP1;ratioP1;P1;durP2;ratioP2;P2;SDS_P1;SDS_P2;PMS_P1;PMS_P2;Temp;Humidity;BMP_temperature;BMP_pressure;BME280_temperature;BME280_humidity;BME280_pressure;Samples;Min_cycle;Max_cycle;Signal;HPM_P1;HPM_P2
2022/07/12 00:01:42;;;;;;;3.47;2.88;;;16.50;99.90;;;;;;5011962;28;20049;-76
2022/07/12 00:04:07;;;;;;;2.97;2.55;;;16.50;99.90;;;;;;5012312;28;20038;-76
2022/07/12 00:06:33;;;;;;;3.25;2.65;;;16.40;99.90;;;;;;5012099;28;20070;-76
2022/07/12 00:08:58;;;;;;;3.63;2.97;;;16.60;99.90;;;;;;5012094;28;20049;-77
2022/07/12 00:11:24;;;;;;;3.75;3.03;;;16.60;99.90;;;;;;5010161;28;20046;-76
2022/07/12 00:13:50;;;;;;;6.47;3.10;;;16.50;99.90;;;;;;5012219;28;20397;-76
2022/07/12 00:16:15;;;;;;;3.50;2.75;;;16.30;99.90;;;;;;5010891;28;20125;-76
2022/07/12 00:18:41;;;;;;;4.10;2.95;;;16.30;99.90;;;;;;5012190;28;20044;-76
2022/07/12 00:21:07;;;;;;;3.08;2.40;;;16.50;99.90;;;;;;5010371;28;20038;-76
2022/07/12 00:23:34;;;;;;;3.58;2.83;;;16.30;99.90;;;;;;5011105;28;20073;-77
2022/07/12 00:26:04;;;;;;;5.07;3.38;;;16.50;99.90;;;;;;5010820;28;20124;-76
2022/07/12 00:28:32;;;;;;;3.83;3.15;;;16.30;99.90;;;;;;5012216;28;20116;-76
2022/07/12 00:30:59;;;;;;;3.00;2.65;;;16.50;99.90;;;;;;5011838;28;20042;-76
2022/07/12 00:33:25;;;;;;;3.20;2.90;;;16.40;99.90;;;;;;5010802;28;20041;-76
2022/07/12 00:35:51;;;;;;;4.07;3.03;;;16.20;99.90;;;;;;5012029;28;20092;-76
2022/07/12 00:38:17;;;;;;;4.13;3.20;;;16.40;99.90;;;;;;5011883;28;20046;-76
2022/07/12 00:40:42;;;;;;;3.63;3.03;;;16.30;99.90;;;;;;5010395;28;20045;-76
2022/07/12 00:43:08;;;;;;;4.35;2.63;;;16.40;99.90;;;;;;5012008;28;20042;-76
2022/07/12 00:45:33;;;;;;;3.55;3.05;;;16.40;99.90;;;;;;5011988;28;20112;-76
2022/07/12 00:47:59;;;;;;;3.85;3.05;;;16.40;99.90;;;;;;5010633;28;20472;-76
2022/07/12 00:50:25;;;;;;;4.68;3.55;;;16.40;99.90;;;;;;5010388;28;20068;-76
2022/07/12 00:52:53;;;;;;;4.47;3.38;;;16.10;99.90;;;;;;5010333;28;20038;-76
2022/07/12 00:55:20;;;;;;;6.03;4.07;;;16.20;99.90;;;;;;5010491;28;20042;-76
2022/07/12 00:57:47;;;;;;;3.67;3.10;;;16.10;99.90;;;;;;4994196;28;20534;-76
2022/07/12 01:00:19;;;;;;;4.47;3.40;;;16.10;99.90;;;;;;5010378;28;20165;-76
2022/07/12 01:02:46;;;;;;;4.97;4.03;;;16.30;99.90;;;;;;5010274;28;20034;-76
2022/07/12 01:05:11;;;;;;;4.22;3.83;;;16.00;99.90;;;;;;5010333;28;20095;-76
2022/07/12 01:07:37;;;;;;;5.03;3.90;;;16.30;99.90;;;;;;5010373;28;20042;-76
2022/07/12 01:10:05;;;;;;;4.35;3.60;;;16.10;99.90;;;;;;5010380;28;20045;-76
2022/07/12 01:12:31;;;;;;;6.53;4.35;;;16.10;99.90;;;;;;5010188;28;20423;-76
2022/07/12 01:14:58;;;;;;;4.60;3.70;;;16.30;99.90;;;;;;5011625;28;20042;-76
2022/07/12 01:17:26;;;;;;;5.03;3.95;;;16.30;99.90;;;;;;5011882;28;20077;-77
2022/07/12 01:19:55;;;;;;;6.15;3.50;;;16.30;99.90;;;;;;5011273;28;20053;-77
2022/07/12 01:22:32;;;;;;;5.85;3.50;;;16.10;99.90;;;;;;5012728;28;20391;-76
2022/07/12 01:25:00;;;;;;;4.47;4.00;;;16.10;99.90;;;;;;5015454;28;20131;-76
2022/07/12 01:27:25;;;;;;;5.20;4.57;;;16.30;99.90;;;;;;5013838;28;20542;-76
2022/07/12 01:29:51;;;;;;;5.53;4.75;;;16.10;99.90;;;;;;5014576;28;20042;-76
2022/07/12 01:32:26;;;;;;;6.47;4.70;;;16.10;99.90;;;;;;5014866;28;20092;-77
2022/07/12 01:34:55;;;;;;;6.53;5.18;;;16.30;99.90;;;;;;5015356;28;20050;-76
2022/07/12 01:37:23;;;;;;;5.30;4.55;;;16.20;99.90;;;;;;5013993;28;20029;-76
2022/07/12 01:39:52;;;;;;;6.32;4.05;;;16.20;99.90;;;;;;5013481;28;20046;-76
2022/07/12 01:42:18;;;;;;;6.43;4.78;;;16.10;99.90;;;;;;5013470;28;20068;-76
2022/07/12 01:44:44;;;;;;;6.40;4.72;;;16.30;99.90;;;;;;5013649;28;20046;-76
2022/07/12 01:47:10;;;;;;;6.30;4.53;;;16.30;99.90;;;;;;5015096;28;20034;-75
2022/07/12 01:49:36;;;;;;;6.28;4.45;;;16.00;99.90;;;;;;5014566;28;20514;-76
2022/07/12 01:52:02;;;;;;;6.25;5.10;;;16.00;99.90;;;;;;5014773;28;20046;-76
2022/07/12 01:54:28;;;;;;;5.03;4.20;;;16.30;99.90;;;;;;5013480;28;20413;-76
2022/07/12 01:56:54;;;;;;;5.35;4.68;;;16.00;99.90;;;;;;5013478;28;20041;-76
2022/07/12 01:59:20;;;;;;;6.22;4.75;;;15.90;99.90;;;;;;5012941;28;20037;-76
2022/07/12 02:01:46;;;;;;;6.50;4.95;;;16.10;99.90;;;;;;5013165;28;20045;-76
2022/07/12 02:04:11;;;;;;;5.30;4.57;;;16.00;99.90;;;;;;5014701;28;20038;-76
2022/07/12 02:06:38;;;;;;;6.03;4.63;;;15.90;99.90;;;;;;5014545;28;20412;-78
2022/07/12 02:09:04;;;;;;;5.30;4.72;;;16.00;99.90;;;;;;5013324;28;20050;-76
2022/07/12 02:11:31;;;;;;;4.78;4.18;;;16.10;99.90;;;;;;5014241;28;20038;-76
2022/07/12 02:13:57;;;;;;;6.40;5.65;;;16.00;99.90;;;;;;5013307;28;20046;-76
2022/07/12 02:16:22;;;;;;;5.65;4.78;;;16.10;99.90;;;;;;5014298;28;20049;-76
2022/07/12 02:18:48;;;;;;;6.03;4.93;;;16.20;99.90;;;;;;5012914;28;20045;-76
2022/07/12 02:21:14;;;;;;;6.00;4.93;;;16.10;99.90;;;;;;5013502;28;20037;-76
2022/07/12 02:23:39;;;;;;;9.90;5.72;;;15.90;99.90;;;;;;5012763;28;20507;-77
2022/07/12 02:26:05;;;;;;;6.20;5.30;;;16.00;99.90;;;;;;5014110;28;20045;-76
2022/07/12 02:28:31;;;;;;;6.82;5.32;;;16.10;99.90;;;;;;5013985;28;20491;-76
2022/07/12 02:30:57;;;;;;;6.35;5.05;;;16.00;99.90;;;;;;5013613;28;20133;-76
2022/07/12 02:33:23;;;;;;;7.22;5.32;;;16.00;99.90;;;;;;5013862;28;20041;-76
2022/07/12 02:35:49;;;;;;;7.25;5.50;;;16.00;99.90;;;;;;5013943;28;20048;-76
2022/07/12 02:38:14;;;;;;;7.03;5.50;;;15.90;99.90;;;;;;5013903;28;20049;-76
2022/07/12 02:40:55;;;;;;;7.15;5.43;;;16.00;99.90;;;;;;5012437;28;20038;-76
2022/07/12 02:43:21;;;;;;;6.55;5.65;;;15.80;99.90;;;;;;5013783;28;20044;-76
2022/07/12 02:45:46;;;;;;;6.43;5.45;;;16.10;99.90;;;;;;5012485;28;20181;-75
2022/07/12 02:48:12;;;;;;;6.43;4.78;;;16.00;99.90;;;;;;5013881;28;20156;-76
2022/07/12 02:50:41;;;;;;;6.50;5.65;;;15.80;99.90;;;;;;5013428;28;20049;-76
2022/07/12 02:53:08;;;;;;;7.97;6.00;;;15.80;99.90;;;;;;5011407;28;20084;-76
2022/07/12 02:55:34;;;;;;;6.13;5.53;;;15.90;99.90;;;;;;5009716;28;20441;-76
2022/07/12 02:58:00;;;;;;;8.68;6.78;;;15.90;99.90;;;;;;5023046;28;20050;-76
2022/07/12 03:00:25;;;;;;;7.80;6.43;;;15.70;99.90;;;;;;5032819;28;20046;-76
2022/07/12 03:02:51;;;;;;;6.70;5.72;;;15.60;99.90;;;;;;5033192;28;20167;-76
2022/07/12 03:05:17;;;;;;;8.75;6.40;;;15.90;99.90;;;;;;5048485;28;20033;-76
2022/07/12 03:07:42;;;;;;;7.40;6.50;;;15.90;99.90;;;;;;5033118;28;20041;-77
2022/07/12 03:10:08;;;;;;;8.60;7.30;;;15.70;99.90;;;;;;5031550;28;20045;-75
2022/07/12 03:12:34;;;;;;;7.70;5.88;;;15.80;99.90;;;;;;5048275;28;20124;-76
2022/07/12 03:15:00;;;;;;;7.75;6.60;;;15.80;99.90;;;;;;5033192;28;20040;-76
2022/07/12 03:17:26;;;;;;;9.43;6.97;;;15.80;99.90;;;;;;5033067;28;20034;-76
2022/07/12 03:19:51;;;;;;;7.70;6.90;;;15.70;99.90;;;;;;5048158;28;20376;-76
2022/07/12 03:22:17;;;;;;;8.00;6.43;;;15.90;99.90;;;;;;5032508;28;20626;-76
2022/07/12 03:24:43;;;;;;;7.70;6.75;;;15.90;99.90;;;;;;5032824;28;20048;-77
2022/07/12 03:27:09;;;;;;;12.02;7.38;;;16.00;99.90;;;;;;5032673;28;20103;-76
2022/07/12 03:29:35;;;;;;;9.45;7.15;;;16.00;99.90;;;;;;5047462;28;20096;-77
2022/07/12 03:32:01;;;;;;;10.30;7.68;;;15.70;99.90;;;;;;5032687;28;20072;-77
2022/07/12 03:34:26;;;;;;;8.77;7.22;;;15.70;99.90;;;;;;5047878;28;20076;-75
2022/07/12 03:36:52;;;;;;;8.52;6.97;;;15.90;99.90;;;;;;5047817;28;20049;-76
2022/07/12 03:39:18;;;;;;;9.23;7.40;;;15.90;99.90;;;;;;5047532;28;20081;-76
2022/07/12 03:41:43;;;;;;;10.82;7.70;;;15.60;99.90;;;;;;5032267;28;20407;-76
2022/07/12 03:44:09;;;;;;;11.23;6.90;;;15.80;99.90;;;;;;5047364;28;20044;-75
2022/07/12 03:46:34;;;;;;;10.38;7.25;;;15.90;99.90;;;;;;5032280;28;20038;-76
2022/07/12 03:49:00;;;;;;;10.73;7.57;;;15.90;99.90;;;;;;5047704;28;20080;-76
2022/07/12 03:51:26;;;;;;;10.93;8.10;;;15.80;99.90;;;;;;5032020;28;20037;-76
2022/07/12 03:53:51;;;;;;;10.20;7.60;;;15.70;99.90;;;;;;5047838;28;20041;-76
2022/07/12 03:59:01;;;;;;;8.52;6.80;;;15.70;99.90;;;;;;5047743;28;20049;-76
2022/07/12 04:01:28;;;;;;;12.43;8.30;;;15.80;99.90;;;;;;5030692;28;20103;-76
2022/07/12 04:03:55;;;;;;;7.85;7.00;;;15.80;99.90;;;;;;5047397;28;20095;-77
2022/07/12 04:06:21;;;;;;;12.55;8.57;;;15.90;99.90;;;;;;5032110;28;20048;-76
2022/07/12 04:08:47;;;;;;;9.20;7.40;;;15.90;99.90;;;;;;5031945;28;20045;-76
2022/07/12 04:11:12;;;;;;;9.10;6.63;;;15.90;99.90;;;;;;5047068;28;20124;-76
2022/07/12 04:13:38;;;;;;;9.93;7.07;;;15.70;99.90;;;;;;5031900;28;20077;-76
2022/07/12 04:16:04;;;;;;;9.18;6.75;;;15.70;99.90;;;;;;5047237;28;20046;-76
2022/07/12 04:18:29;;;;;;;9.23;6.88;;;15.90;99.90;;;;;;5031951;28;20109;-76
2022/07/12 04:20:55;;;;;;;9.13;6.03;;;15.80;99.90;;;;;;5031325;28;20042;-76
2022/07/12 04:23:20;;;;;;;9.77;7.25;;;15.80;99.90;;;;;;5031768;28;20033;-76
2022/07/12 04:25:46;;;;;;;9.68;6.80;;;15.60;99.90;;;;;;5047472;28;20037;-77
2022/07/12 04:28:11;;;;;;;10.88;7.57;;;15.50;99.90;;;;;;5031938;28;20491;-76
2022/07/12 04:30:37;;;;;;;11.38;7.38;;;15.70;99.90;;;;;;5047005;28;20156;-76
2022/07/12 04:33:03;;;;;;;8.63;7.05;;;15.80;99.90;;;;;;5031770;28;20044;-76
2022/07/12 04:35:28;;;;;;;7.82;6.55;;;15.70;99.90;;;;;;5047272;28;20061;-78
2022/07/12 04:37:54;;;;;;;9.45;7.85;;;15.70;99.90;;;;;;5047216;28;20052;-76
2022/07/12 04:40:20;;;;;;;8.98;6.68;;;15.60;99.90;;;;;;5029997;28;20120;-76
2022/07/12 04:42:45;;;;;;;8.32;6.13;;;15.80;99.90;;;;;;5031686;28;20116;-76
2022/07/12 04:45:11;;;;;;;8.90;6.15;;;15.90;99.90;;;;;;5046980;28;20072;-76
2022/07/12 04:47:37;;;;;;;6.75;5.18;;;15.80;99.90;;;;;;5031674;28;20038;-77
2022/07/12 04:50:07;;;;;;;6.32;5.40;;;15.90;99.90;;;;;;5031318;28;20037;-76
2022/07/12 04:52:33;;;;;;;6.80;5.20;;;15.90;99.90;;;;;;5031384;28;20068;-77
2022/07/12 04:54:59;;;;;;;7.93;5.85;;;15.70;99.90;;;;;;5031697;28;20048;-77
2022/07/12 04:57:24;;;;;;;8.02;6.28;;;15.60;99.90;;;;;;5034838;28;20037;-76
2022/07/12 04:59:50;;;;;;;8.27;5.80;;;15.90;99.90;;;;;;5035262;28;20045;-76
2022/07/12 05:02:15;;;;;;;8.80;6.97;;;16.00;99.90;;;;;;5050655;28;20050;-76
2022/07/12 05:04:41;;;;;;;8.93;7.03;;;16.00;99.90;;;;;;5034176;28;20057;-77
2022/07/12 05:07:06;;;;;;;8.95;6.60;;;15.80;99.90;;;;;;5035268;28;20038;-76
2022/07/12 05:09:32;;;;;;;11.27;6.70;;;15.70;99.90;;;;;;5017301;28;20038;-76
2022/07/12 05:11:57;;;;;;;8.85;6.65;;;15.70;99.90;;;;;;5035129;28;20041;-76
2022/07/12 05:14:23;;;;;;;7.70;6.32;;;15.80;99.90;;;;;;5050639;28;20053;-76
2022/07/12 05:16:49;;;;;;;8.15;7.25;;;15.60;99.90;;;;;;5035234;28;20044;-76
2022/07/12 05:19:15;;;;;;;11.80;8.15;;;15.90;99.90;;;;;;5034683;28;20045;-76
2022/07/12 05:21:42;;;;;;;12.13;7.72;;;15.90;99.90;;;;;;5034554;28;20076;-79
2022/07/12 05:24:08;;;;;;;10.20;7.38;;;15.70;99.90;;;;;;5050348;28;20044;-77
2022/07/12 05:26:34;;;;;;;9.52;7.75;;;15.60;99.90;;;;;;5035050;28;20441;-76
2022/07/12 05:29:00;;;;;;;8.50;7.07;;;15.60;99.90;;;;;;5035032;28;20037;-76
2022/07/12 05:31:26;;;;;;;10.98;8.40;;;15.60;99.90;;;;;;5049980;28;20042;-76
2022/07/12 05:33:52;;;;;;;10.02;8.32;;;15.60;99.90;;;;;;5050172;28;20084;-76
2022/07/12 05:36:18;;;;;;;11.32;7.80;;;16.00;99.90;;;;;;5034604;28;20191;-75
2022/07/12 05:38:44;;;;;;;10.05;8.02;;;15.60;99.90;;;;;;5050092;28;20049;-76
2022/07/12 05:41:09;;;;;;;10.45;7.63;;;16.00;99.90;;;;;;5034114;28;20037;-75
2022/07/12 05:43:35;;;;;;;9.95;7.25;;;16.00;99.90;;;;;;5050264;28;20033;-76
2022/07/12 05:46:00;;;;;;;9.45;7.50;;;16.10;99.90;;;;;;5034675;28;20034;-76
2022/07/12 05:48:26;;;;;;;9.25;6.97;;;16.00;99.90;;;;;;5049767;28;20038;-76
2022/07/12 05:50:52;;;;;;;10.50;8.05;;;16.30;99.90;;;;;;5049085;28;20042;-77
2022/07/12 05:53:23;;;;;;;8.45;6.80;;;16.20;99.90;;;;;;5024875;28;20397;-76
2022/07/12 05:55:53;;;;;;;7.97;6.45;;;16.00;99.90;;;;;;5013508;28;20100;-76
2022/07/12 05:58:20;;;;;;;9.00;7.65;;;16.30;99.90;;;;;;5014905;28;20041;-76
2022/07/12 06:00:47;;;;;;;9.77;7.63;;;16.20;99.90;;;;;;5014002;28;20551;-78
2022/07/12 06:03:14;;;;;;;8.90;7.43;;;16.40;99.90;;;;;;5014400;28;20092;-77
2022/07/12 06:05:39;;;;;;;9.00;7.40;;;16.50;99.90;;;;;;5013065;28;20094;-77
2022/07/12 06:08:06;;;;;;;10.95;7.28;;;16.60;99.90;;;;;;5013789;28;20438;-77
2022/07/12 06:10:32;;;;;;;7.97;6.22;;;16.80;99.90;;;;;;5013032;28;20049;-76
2022/07/12 06:12:57;;;;;;;7.63;6.15;;;16.50;99.90;;;;;;5014262;28;20045;-77
2022/07/12 06:15:24;;;;;;;7.72;6.65;;;16.80;99.90;;;;;;5013834;28;20034;-77
2022/07/12 06:17:50;;;;;;;7.65;6.28;;;16.90;99.90;;;;;;5012395;28;20042;-77
2022/07/12 06:20:15;;;;;;;9.10;6.78;;;16.90;99.90;;;;;;5012161;28;20065;-77
2022/07/12 06:22:41;;;;;;;8.57;6.57;;;17.00;99.90;;;;;;5012448;28;20042;-77
2022/07/12 06:25:07;;;;;;;7.10;5.97;;;17.00;99.90;;;;;;5012889;28;20056;-78
2022/07/12 06:27:33;;;;;;;6.40;5.53;;;17.10;99.90;;;;;;5014006;28;20419;-77
2022/07/12 06:29:58;;;;;;;6.22;4.72;;;17.20;99.90;;;;;;5012530;28;20116;-77
2022/07/12 06:32:24;;;;;;;7.15;6.00;;;17.40;99.90;;;;;;5013241;28;20074;-77
2022/07/12 06:34:49;;;;;;;7.20;5.32;;;17.40;99.90;;;;;;5012155;28;20042;-77
2022/07/12 06:37:15;;;;;;;6.97;5.13;;;17.50;99.90;;;;;;5012383;28;20407;-78
2022/07/12 06:39:41;;;;;;;6.85;5.30;;;17.50;99.90;;;;;;5012155;28;20398;-77
2022/07/12 06:42:07;;;;;;;9.10;5.80;;;17.70;99.90;;;;;;5012423;28;20058;-78
2022/07/12 06:44:34;;;;;;;7.00;5.13;;;17.80;99.90;;;;;;5012445;28;20122;-78
2022/07/12 06:47:00;;;;;;;6.63;4.97;;;17.70;99.90;;;;;;5012308;28;20120;-78
2022/07/12 06:49:26;;;;;;;7.35;5.85;;;17.80;99.90;;;;;;5012349;28;20554;-78
2022/07/12 06:51:51;;;;;;;6.82;5.35;;;17.90;99.90;;;;;;5012305;28;20041;-78
2022/07/12 06:54:17;;;;;;;7.55;4.95;;;18.30;99.90;;;;;;5012322;28;20044;-77
2022/07/12 06:56:43;;;;;;;5.55;4.95;;;18.40;99.90;;;;;;5012333;28;20053;-77
2022/07/12 06:59:12;;;;;;;5.60;5.03;;;18.60;99.90;;;;;;5013185;28;20092;-78
2022/07/12 07:01:38;;;;;;;6.68;5.32;;;18.80;99.90;;;;;;5012580;28;20081;-77
2022/07/12 07:04:04;;;;;;;7.32;5.05;;;19.00;99.90;;;;;;5011806;28;20030;-77
2022/07/12 07:06:29;;;;;;;9.93;5.68;;;19.10;99.90;;;;;;5011754;28;20042;-77
2022/07/12 07:08:55;;;;;;;5.47;4.60;;;19.20;99.90;;;;;;5012282;28;20056;-77
2022/07/12 07:11:21;;;;;;;5.43;4.80;;;19.30;99.90;;;;;;5012921;28;20064;-77
2022/07/12 07:13:46;;;;;;;5.75;5.13;;;19.40;99.90;;;;;;5011923;28;20201;-77
2022/07/12 07:16:13;;;;;;;6.07;4.82;;;19.70;99.90;;;;;;5013066;28;20046;-77
2022/07/12 07:18:39;;;;;;;6.90;5.18;;;20.00;99.90;;;;;;5011744;28;20034;-77
2022/07/12 07:21:06;;;;;;;4.90;4.40;;;20.20;99.90;;;;;;5011609;28;20530;-77
2022/07/12 07:23:32;;;;;;;8.52;5.70;;;20.20;99.90;;;;;;5012927;28;20036;-77
2022/07/12 07:25:57;;;;;;;7.60;5.80;;;20.10;99.90;;;;;;5011910;28;20126;-77
2022/07/12 07:28:23;;;;;;;5.75;5.03;;;20.10;99.90;;;;;;5012986;28;20053;-77
2022/07/12 07:30:55;;;;;;;7.10;5.32;;;20.40;99.90;;;;;;5012392;28;20132;-77
2022/07/12 07:33:22;;;;;;;6.47;4.93;;;20.60;99.90;;;;;;5011634;28;20042;-77
2022/07/12 07:35:48;;;;;;;13.05;5.75;;;21.10;99.90;;;;;;5012880;28;20129;-77
2022/07/12 07:38:15;;;;;;;5.28;4.78;;;21.50;99.90;;;;;;5012811;28;20122;-77
2022/07/12 07:40:41;;;;;;;6.63;4.90;;;21.80;99.90;;;;;;5011224;28;20411;-77
2022/07/12 07:43:06;;;;;;;5.57;3.97;;;22.00;99.90;;;;;;5011337;28;20069;-77
2022/07/12 07:45:32;;;;;;;4.70;4.15;;;22.30;99.90;;;;;;5011316;28;20042;-77
2022/07/12 07:47:57;;;;;;;7.05;5.47;;;22.80;99.90;;;;;;5012839;28;20121;-78
2022/07/12 07:50:23;;;;;;;4.63;4.15;;;22.70;99.90;;;;;;5012446;28;20062;-78
2022/07/12 07:52:49;;;;;;;5.85;4.20;;;22.90;99.90;;;;;;5011210;28;20053;-78
2022/07/12 07:55:15;;;;;;;4.53;4.00;;;23.00;99.90;;;;;;5011191;28;20046;-78
2022/07/12 07:57:41;;;;;;;4.65;3.58;;;23.20;99.90;;;;;;5012425;28;20117;-75
2022/07/12 08:00:07;;;;;;;5.40;3.67;;;23.50;99.90;;;;;;5011999;28;20121;-78
2022/07/12 08:02:33;;;;;;;4.00;3.17;;;24.00;99.90;;;;;;5011104;28;20519;-78
2022/07/12 08:04:58;;;;;;;3.95;3.45;;;24.40;99.90;;;;;;5012514;28;20172;-79
2022/07/12 08:07:24;;;;;;;4.47;3.08;;;24.50;99.90;;;;;;5012475;28;20484;-76
2022/07/12 08:09:49;;;;;;;3.70;2.85;;;24.90;99.90;;;;;;5010884;28;20041;-77
2022/07/12 08:12:15;;;;;;;5.20;3.22;;;24.90;99.90;;;;;;5010908;28;20042;-78
2022/07/12 08:14:41;;;;;;;4.45;3.30;;;24.70;99.40;;;;;;5012028;28;20038;-78
2022/07/12 08:17:06;;;;;;;4.68;3.75;;;24.70;99.50;;;;;;5012070;28;20112;-77
2022/07/12 08:19:32;;;;;;;3.08;2.80;;;24.90;99.40;;;;;;5012145;28;20084;-77
2022/07/12 08:21:57;;;;;;;2.85;2.55;;;25.10;99.20;;;;;;5017851;28;20515;-77
2022/07/12 08:24:23;;;;;;;4.20;2.60;;;25.30;99.40;;;;;;5015445;28;20117;-78
2022/07/12 08:26:49;;;;;;;3.63;2.90;;;25.40;99.30;;;;;;5010921;28;20038;-78
2022/07/12 08:29:15;;;;;;;3.33;3.03;;;25.30;98.60;;;;;;5010363;28;20513;-78
2022/07/12 08:31:41;;;;;;;3.67;2.63;;;25.30;98.10;;;;;;5010430;28;20128;-77
2022/07/12 08:34:07;;;;;;;4.00;3.20;;;25.50;98.10;;;;;;5012153;28;20084;-77
2022/07/12 08:36:32;;;;;;;3.13;2.78;;;25.40;98.40;;;;;;5010787;28;20042;-77
2022/07/12 08:38:58;;;;;;;3.47;2.92;;;25.30;98.30;;;;;;5010706;28;20049;-78
2022/07/12 08:41:23;;;;;;;3.03;2.47;;;25.20;98.30;;;;;;5011540;28;20052;-77
2022/07/12 08:43:49;;;;;;;2.75;2.53;;;25.30;98.40;;;;;;5010521;28;20388;-79
2022/07/12 08:46:15;;;;;;;3.10;2.60;;;25.20;98.30;;;;;;5011904;28;20042;-78
2022/07/12 08:48:43;;;;;;;2.90;2.60;;;25.20;98.00;;;;;;5012086;28;20042;-78
2022/07/12 08:51:11;;;;;;;3.95;2.95;;;25.20;98.50;;;;;;5010157;28;20050;-78
2022/07/12 08:53:37;;;;;;;3.28;2.60;;;25.20;98.20;;;;;;5010033;28;20045;-78
2022/07/12 08:56:04;;;;;;;3.22;2.50;;;25.20;98.60;;;;;;5010059;28;20120;-77
2022/07/12 08:58:30;;;;;;;4.95;4.50;;;25.20;98.40;;;;;;5010217;28;20041;-77
2022/07/12 09:00:56;;;;;;;3.88;3.47;;;25.00;98.20;;;;;;5009542;28;20048;-75
2022/07/12 09:03:22;;;;;;;4.25;2.40;;;24.90;98.50;;;;;;5009411;28;20038;-78
2022/07/12 09:05:49;;;;;;;2.90;2.45;;;24.90;98.40;;;;;;5010122;28;20070;-78
2022/07/12 09:08:14;;;;;;;2.83;2.33;;;24.90;98.60;;;;;;5011356;28;20454;-77
2022/07/12 09:10:49;;;;;;;4.07;2.95;;;24.90;98.60;;;;;;5009630;28;20050;-78
2022/07/12 09:13:14;;;;;;;3.60;2.65;;;25.00;98.00;;;;;;5011393;28;20042;-77
2022/07/12 09:15:40;;;;;;;3.50;2.65;;;25.10;98.70;;;;;;5009737;28;20088;-78
2022/07/12 09:18:13;;;;;;;2.33;2.13;;;24.90;98.00;;;;;;5011274;28;20092;-77
2022/07/12 09:20:41;;;;;;;3.00;2.63;;;24.90;98.30;;;;;;5009672;28;20046;-78
2022/07/12 09:23:09;;;;;;;3.10;2.55;;;25.00;98.20;;;;;;5010149;28;20038;-78
2022/07/12 09:25:36;;;;;;;4.15;2.85;;;25.20;98.60;;;;;;5010979;28;20030;-78
2022/07/12 09:28:07;;;;;;;3.83;2.45;;;25.20;98.30;;;;;;5009828;28;20104;-77
2022/07/12 09:30:34;;;;;;;2.55;2.03;;;25.10;98.80;;;;;;5010456;28;20042;-78
2022/07/12 09:36:12;;;;;;;2.15;1.95;;;25.30;99.90;;;;;;5010026;28;20049;-78
2022/07/12 09:39:00;;;;;;;2.88;1.90;;;25.40;98.60;;;;;;5010231;28;20038;-78
2022/07/12 09:41:26;;;;;;;2.70;1.67;;;25.30;98.50;;;;;;5010361;28;20061;-78
2022/07/12 09:43:53;;;;;;;1.83;1.65;;;25.10;99.20;;;;;;5011943;28;20037;-78
2022/07/12 09:46:19;;;;;;;3.58;1.92;;;25.30;99.50;;;;;;5010969;28;20088;-78
2022/07/12 09:48:45;;;;;;;3.97;2.10;;;25.50;99.30;;;;;;5013130;28;20117;-79
2022/07/12 09:51:17;;;;;;;2.10;1.80;;;25.10;97.90;;;;;;5014751;28;20491;-78
2022/07/12 09:53:46;;;;;;;3.47;2.08;;;25.20;99.40;;;;;;5013870;28;20048;-78
2022/07/12 09:56:14;;;;;;;3.67;1.88;;;25.00;98.20;;;;;;5014722;28;20045;-78
2022/07/12 09:58:47;;;;;;;3.53;2.10;;;25.10;98.10;;;;;;5014587;28;20092;-77
2022/07/12 10:01:15;;;;;;;4.57;2.08;;;25.10;98.10;;;;;;5012891;28;20065;-76
2022/07/12 10:03:43;;;;;;;1.65;1.40;;;25.30;98.10;;;;;;5014807;28;20084;-77
2022/07/12 10:06:10;;;;;;;2.67;1.90;;;25.50;98.70;;;;;;5014645;28;20044;-78
2022/07/12 10:08:36;;;;;;;3.88;2.10;;;25.60;98.40;;;;;;4996909;28;20553;-78
2022/07/12 10:11:02;;;;;;;3.80;2.00;;;25.60;97.70;;;;;;5014021;28;20038;-78
2022/07/12 10:13:30;;;;;;;2.78;1.80;;;25.60;97.90;;;;;;5014606;28;20176;-77
2022/07/12 10:16:00;;;;;;;3.10;2.00;;;25.60;97.80;;;;;;5014527;28;20450;-78
2022/07/12 10:18:27;;;;;;;4.50;1.70;;;25.60;97.90;;;;;;5014351;28;20513;-77
2022/07/12 10:20:53;;;;;;;1.77;1.40;;;25.80;97.60;;;;;;5013746;28;20034;-77
2022/07/12 10:23:37;;;;;;;1.67;1.35;;;25.80;98.20;;;;;;5012876;28;20515;-78
2022/07/12 10:26:14;;;;;;;6.50;1.50;;;25.80;97.70;;;;;;5013562;28;20038;-77
2022/07/12 10:28:56;;;;;;;2.53;1.65;;;25.90;96.70;;;;;;5013928;28;20507;-74
2022/07/12 10:31:28;;;;;;;1.40;1.25;;;26.00;98.20;;;;;;5013821;28;20046;-77
2022/07/12 10:34:21;;;;;;;2.50;1.50;;;25.80;97.30;;;;;;5013923;28;20041;-78
2022/07/12 10:36:56;;;;;;;2.28;1.60;;;25.50;96.80;;;;;;5014075;28;20280;-77
2022/07/12 10:39:26;;;;;;;2.67;1.40;;;25.50;97.70;;;;;;5013702;28;20042;-77
2022/07/12 10:42:05;;;;;;;2.63;2.00;;;25.30;97.50;;;;;;5013752;28;20420;-78
2022/07/12 10:44:36;;;;;;;3.45;1.50;;;25.10;95.90;;;;;;5012587;28;20037;-78
2022/07/12 10:47:04;;;;;;;1.88;1.17;;;25.20;97.50;;;;;;5012369;28;20053;-77
2022/07/12 10:49:33;;;;;;;1.75;1.10;;;25.40;98.00;;;;;;5013475;28;20042;-76
2022/07/12 10:52:10;;;;;;;3.88;1.85;;;25.60;96.80;;;;;;5013690;28;20084;-77
2022/07/12 10:54:41;;;;;;;2.05;1.55;;;25.80;95.20;;;;;;5013376;28;20137;-78
2022/07/12 10:57:07;;;;;;;1.70;1.52;;;25.70;94.40;;;;;;5012284;28;20042;-77
2022/07/12 10:59:34;;;;;;;2.75;1.48;;;25.60;95.10;;;;;;5011950;28;20042;-79
2022/07/12 11:02:00;;;;;;;1.50;1.15;;;25.60;96.90;;;;;;5011945;28;20064;-77
2022/07/12 11:04:27;;;;;;;2.83;1.05;;;25.70;96.50;;;;;;5012463;28;20492;-77
2022/07/12 11:06:58;;;;;;;3.15;1.33;;;25.70;95.80;;;;;;5012045;28;20064;-79
2022/07/12 11:09:24;;;;;;;2.03;1.60;;;25.80;95.10;;;;;;5011821;28;20124;-77
2022/07/12 11:11:51;;;;;;;2.25;1.42;;;25.80;94.20;;;;;;5011694;28;20046;-78
2022/07/12 11:14:26;;;;;;;2.00;1.15;;;25.80;95.00;;;;;;5011620;28;20534;-78
2022/07/12 11:16:54;;;;;;;3.17;1.23;;;25.80;95.90;;;;;;5010593;28;20124;-77
2022/07/12 11:19:28;;;;;;;2.08;1.05;;;25.90;96.50;;;;;;5010813;28;20053;-77
2022/07/12 11:21:58;;;;;;;3.03;1.38;;;25.90;96.60;;;;;;5011059;28;20042;-77
2022/07/12 11:24:34;;;;;;;2.17;1.20;;;25.90;95.60;;;;;;5008739;28;20026;-78
2022/07/12 11:27:00;;;;;;;2.78;1.15;;;25.90;96.00;;;;;;5012840;28;20037;-77
2022/07/12 11:29:26;;;;;;;1.80;1.00;;;25.90;96.70;;;;;;5011665;28;20458;-77
2022/07/12 11:32:06;;;;;;;1.58;0.80;;;25.90;96.60;;;;;;5012518;28;20041;-77
2022/07/12 11:34:34;;;;;;;1.60;0.90;;;25.80;97.50;;;;;;5009170;28;20156;-77
2022/07/12 11:37:01;;;;;;;2.28;1.20;;;25.70;97.50;;;;;;5011198;28;20442;-77
2022/07/12 11:39:38;;;;;;;1.70;1.10;;;25.70;96.30;;;;;;5010821;28;20049;-76
2022/07/12 11:42:05;;;;;;;3.70;1.20;;;25.50;95.70;;;;;;5010904;28;20038;-77
2022/07/12 11:44:49;;;;;;;2.15;0.77;;;25.50;96.80;;;;;;5011017;28;20060;-77
2022/07/12 11:47:16;;;;;;;2.75;0.80;;;25.40;95.80;;;;;;5009177;28;20072;-77
2022/07/12 11:49:52;;;;;;;1.02;0.70;;;25.40;95.00;;;;;;5012310;28;20549;-77
2022/07/12 11:52:19;;;;;;;3.65;0.90;;;25.60;95.20;;;;;;5011340;28;20046;-78
2022/07/12 11:54:46;;;;;;;2.20;1.10;;;25.70;95.20;;;;;;5012611;28;20056;-77
2022/07/12 11:57:12;;;;;;;3.30;1.00;;;25.70;94.70;;;;;;5011343;28;20052;-78
2022/07/12 11:59:38;;;;;;;3.20;1.00;;;25.80;95.10;;;;;;5011470;28;20460;-78
2022/07/12 12:02:12;;;;;;;2.15;1.02;;;25.80;94.60;;;;;;5012504;28;20045;-78
2022/07/12 12:04:45;;;;;;;1.20;0.65;;;26.20;94.40;;;;;;5012564;28;20045;-78
2022/07/12 12:07:15;;;;;;;0.60;0.50;;;26.40;94.30;;;;;;5011995;28;20042;-78
2022/07/12 12:10:14;;;;;;;2.17;0.80;;;26.50;94.10;;;;;;5010687;28;20045;-78
2022/07/12 12:12:42;;;;;;;0.88;0.50;;;26.50;94.90;;;;;;5011041;28;20533;-78
2022/07/12 12:15:11;;;;;;;0.88;0.60;;;26.30;92.40;;;;;;5012334;28;20395;-79
2022/07/12 12:17:42;;;;;;;0.82;0.70;;;26.30;92.40;;;;;;5012516;28;20041;-78
2022/07/12 12:20:10;;;;;;;1.70;0.80;;;26.20;91.40;;;;;;5012016;28;20045;-77
2022/07/12 12:22:37;;;;;;;2.70;0.90;;;26.30;91.00;;;;;;5011747;28;20038;-79
2022/07/12 12:25:12;;;;;;;1.23;0.50;;;26.30;90.90;;;;;;5012374;28;20046;-78
2022/07/12 12:27:41;;;;;;;1.33;0.70;;;26.30;88.70;;;;;;5012247;28;20034;-78
2022/07/12 12:30:07;;;;;;;0.80;0.45;;;26.30;91.30;;;;;;5010497;28;20096;-77
2022/07/12 12:33:06;;;;;;;1.70;0.68;;;26.40;92.00;;;;;;5011548;28;20474;-78
2022/07/12 12:35:38;;;;;;;1.38;0.75;;;26.20;89.40;;;;;;5002955;28;20077;-78
2022/07/12 12:38:11;;;;;;;;;;;26.20;90.30;;;;;;5012334;28;20034;-78
2022/07/12 12:40:37;;;;;;;4.03;1.20;;;26.00;90.40;;;;;;5010329;28;19960;-78
2022/07/12 12:43:12;;;;;;;2.13;0.90;;;26.10;91.20;;;;;;5010640;28;20117;-78
2022/07/12 12:45:53;;;;;;;1.52;0.65;;;26.30;90.80;;;;;;5010396;28;20488;-78
2022/07/12 12:48:23;;;;;;;1.80;0.60;;;26.30;90.70;;;;;;5012164;28;20034;-77
2022/07/12 12:50:51;;;;;;;3.05;0.90;;;26.20;85.80;;;;;;5011597;28;20066;-79
2022/07/12 12:53:24;;;;;;;0.73;0.60;;;26.20;85.30;;;;;;5011890;28;20056;-78